Time;durP1;ratioP1;P1;durP2;ratioP2;P2;SDS_P1;SDS_P2;PMS_P1;PMS_P2;Temp;Humidity;BMP_temperature;BMP_pressure;BME280_temperature;BME280_humidity;BME280_pressure;Samples;Min_cycle;Max_cycle;Signal;HPM_P1;HPM_P2
2021/10/26 00:01:32;;;;;;;12.27;8.30;;;;;;;25.91;16.96;95436.09;5018033;28;20359;-43
2021/10/26 00:03:59;;;;;;;10.55;8.43;;;;;;;25.79;17.10;95442.41;5033457;28;20048;-51
2021/10/26 00:06:26;;;;;;;10.52;8.57;;;;;;;25.66;17.24;95433.75;5033198;28;20060;-44
2021/10/26 00:08:56;;;;;;;10.48;8.48;;;;;;;25.72;17.33;95432.34;5028387;28;20041;-52
2021/10/26 00:11:23;;;;;;;8.98;7.70;;;;;;;25.74;17.30;95424.72;5032481;28;20391;-42
2021/10/26 00:13:50;;;;;;;12.20;8.82;;;;;;;25.68;17.39;95430.72;5031964;28;20049;-42
2021/10/26 00:16:18;;;;;;;9.60;8.65;;;;;;;25.79;17.03;95431.72;5031498;28;20040;-42
2021/10/26 00:18:45;;;;;;;10.68;8.43;;;;;;;25.73;17.06;95438.47;5033152;28;20053;-47
2021/10/26 00:21:12;;;;;;;9.90;8.10;;;;;;;25.72;17.00;95424.31;5032101;28;20359;-55
2021/10/26 00:23:39;;;;;;;11.65;8.88;;;;;;;25.61;17.21;95420.66;5033545;28;20052;-46
2021/10/26 00:26:07;;;;;;;10.50;8.73;;;;;;;25.76;17.03;95430.53;5033421;28;20049;-44
2021/10/26 00:28:35;;;;;;;12.45;8.75;;;;;;;25.50;17.28;95428.50;5033512;28;20052;-48
2021/10/26 00:31:03;;;;;;;10.30;8.27;;;;;;;25.70;17.24;95425.78;5032766;28;20042;-46
2021/10/26 00:33:31;;;;;;;13.93;8.27;;;;;;;25.53;17.17;95432.38;5033179;28;20376;-50
2021/10/26 00:35:58;;;;;;;10.88;7.53;;;;;;;25.74;17.23;95424.72;5033115;28;20052;-49
2021/10/26 00:38:26;;;;;;;10.25;8.02;;;;;;;25.44;17.38;95421.09;5032206;28;20472;-46
2021/10/26 00:40:53;;;;;;;9.80;7.40;;;;;;;25.77;17.19;95418.69;5032301;28;20064;-43
2021/10/26 00:43:20;;;;;;;10.10;7.55;;;;;;;25.76;17.32;95425.16;5032591;28;20068;-43
2021/10/26 00:45:48;;;;;;;8.88;7.60;;;;;;;25.51;17.43;95415.91;5033038;28;20452;-44
2021/10/26 00:48:15;;;;;;;10.20;7.30;;;;;;;25.66;17.42;95417.69;5029363;28;20041;-42
2021/10/26 00:50:43;;;;;;;9.15;7.22;;;;;;;25.59;17.51;95414.88;5032041;28;20041;-43
2021/10/26 00:53:10;;;;;;;9.73;7.30;;;;;;;25.36;17.84;95409.50;5028644;28;20041;-42
2021/10/26 00:55:37;;;;;;;7.88;7.07;;;;;;;25.40;17.64;95413.03;5032109;28;20451;-42
2021/10/26 00:58:05;;;;;;;10.20;7.35;;;;;;;25.55;17.37;95405.25;5027932;28;20041;-44
2021/10/26 01:00:33;;;;;;;10.77;7.55;;;;;;;25.50;17.56;95407.09;5044731;28;20045;-51
2021/10/26 01:03:05;;;;;;;8.07;7.22;;;;;;;25.52;17.65;95396.03;5032324;28;20050;-45
2021/10/26 01:05:35;;;;;;;9.45;7.53;;;;;;;25.69;17.07;95402.81;5031969;28;20057;-57
2021/10/26 01:08:03;;;;;;;9.77;7.78;;;;;;;25.49;17.67;95402.06;5029726;28;20380;-59
2021/10/26 01:10:33;;;;;;;10.32;7.28;;;;;;;25.40;17.40;95401.53;5047236;28;20056;-43
2021/10/26 01:13:03;;;;;;;9.50;7.85;;;;;;;25.53;17.44;95397.56;5031996;28;20056;-53
2021/10/26 01:15:32;;;;;;;11.15;7.90;;;;;;;25.56;17.58;95380.03;5028086;28;20049;-42
2021/10/26 01:18:07;;;;;;;11.18;7.32;;;;;;;25.71;17.31;95387.94;5032229;28;20045;-43
2021/10/26 01:20:34;;;;;;;10.23;7.18;;;;;;;25.46;17.37;95384.81;5031240;28;20046;-43
2021/10/26 01:23:01;;;;;;;8.32;7.45;;;;;;;25.41;17.67;95397.72;5029713;28;20045;-61
2021/10/26 01:25:28;;;;;;;9.50;7.50;;;;;;;25.20;17.79;95390.09;5031529;28;20049;-51
2021/10/26 01:27:55;;;;;;;9.30;7.55;;;;;;;25.60;17.22;95383.53;5030721;28;20363;-47
2021/10/26 01:30:27;;;;;;;11.18;8.32;;;;;;;25.29;17.54;95382.63;5028497;28;20478;-61
2021/10/26 01:33:03;;;;;;;10.88;8.68;;;;;;;25.27;17.55;95384.13;5044145;28;20049;-44
2021/10/26 01:35:47;;;;;;;9.27;8.10;;;;;;;25.29;17.54;95381.84;5015937;28;20049;-61
2021/10/26 01:38:15;;;;;;;11.30;8.13;;;;;;;25.46;17.25;95381.38;5037047;28;20403;-63
2021/10/26 01:40:42;;;;;;;10.77;8.88;;;;;;;25.32;17.43;95391.84;5029991;28;20041;-43
2021/10/26 01:43:09;;;;;;;10.68;8.15;;;;;;;25.23;17.64;95377.91;5031820;28;20045;-45
2021/10/26 01:45:36;;;;;;;13.18;8.77;;;;;;;25.27;17.52;95373.41;5035322;28;20050;-55
2021/10/26 01:48:18;;;;;;;12.80;9.35;;;;;;;25.35;17.46;95372.41;5035861;28;20048;-58
2021/10/26 01:50:46;;;;;;;13.43;9.23;;;;;;;25.32;17.40;95370.44;5031223;28;20041;-44
2021/10/26 01:53:13;;;;;;;12.60;9.13;;;;;;;25.28;17.44;95364.25;5035709;28;20045;-61
2021/10/26 01:55:40;;;;;;;13.13;9.73;;;;;;;25.46;17.12;95370.66;5035181;28;20050;-43
2021/10/26 01:58:08;;;;;;;12.60;9.38;;;;;;;25.24;17.48;95363.41;5025851;28;20049;-42
2021/10/26 02:00:55;;;;;;;11.57;9.57;;;;;;;25.06;17.59;95358.50;5036095;28;20053;-42
2021/10/26 02:03:22;;;;;;;14.90;10.35;;;;;;;25.20;17.43;95363.34;5018879;28;20041;-43
2021/10/26 02:05:50;;;;;;;17.40;10.27;;;;;;;24.81;17.84;95358.00;5015806;28;20363;-42
2021/10/26 02:08:17;;;;;;;14.50;10.50;;;;;;;24.91;17.43;95365.47;5035830;28;20045;-42
2021/10/26 02:10:44;;;;;;;16.50;11.35;;;;;;;24.72;17.85;95362.81;5024698;28;20065;-44
2021/10/26 02:13:14;;;;;;;15.07;10.95;;;;;;;25.08;17.42;95350.91;5034772;28;20045;-42
2021/10/26 02:15:42;;;;;;;13.07;10.43;;;;;;;25.00;17.47;95357.25;5034067;28;20049;-42
2021/10/26 02:18:09;;;;;;;15.32;10.98;;;;;;;25.10;17.40;95359.34;5034623;28;20061;-42
2021/10/26 02:20:36;;;;;;;13.40;9.82;;;;;;;25.12;17.39;95357.09;5034845;28;20053;-43
2021/10/26 02:23:05;;;;;;;13.32;10.52;;;;;;;24.94;17.62;95355.19;5034981;28;20049;-55
2021/10/26 02:25:32;;;;;;;14.10;10.63;;;;;;;24.99;17.46;95353.03;5034873;28;20049;-57
2021/10/26 02:27:59;;;;;;;13.45;9.85;;;;;;;25.12;17.46;95351.75;5034833;28;20053;-42
2021/10/26 02:30:26;;;;;;;14.35;9.63;;;;;;;24.82;17.71;95348.88;5034859;28;20049;-42
2021/10/26 02:32:54;;;;;;;11.77;9.88;;;;;;;24.94;17.59;95350.59;5035013;28;20052;-42
2021/10/26 02:35:22;;;;;;;13.55;9.48;;;;;;;24.98;17.34;95350.66;5034374;28;20041;-43
2021/10/26 02:37:49;;;;;;;11.85;9.15;;;;;;;24.86;17.44;95349.69;5034195;28;20049;-43
2021/10/26 02:40:20;;;;;;;13.07;9.85;;;;;;;25.20;17.24;95337.34;5031223;28;20049;-42
2021/10/26 02:42:47;;;;;;;12.65;9.27;;;;;;;25.16;17.11;95352.56;5017526;28;20061;-42
2021/10/26 02:45:17;;;;;;;11.30;8.60;;;;;;;25.06;17.40;95353.16;5034659;28;20064;-53
2021/10/26 02:47:46;;;;;;;9.82;8.38;;;;;;;25.28;17.01;95351.66;5014364;28;20380;-53
2021/10/26 02:50:14;;;;;;;11.45;8.57;;;;;;;25.01;17.35;95350.78;5034031;28;20047;-42
2021/10/26 02:52:41;;;;;;;10.88;8.30;;;;;;;24.98;17.35;95343.41;5033825;28;20045;-42
2021/10/26 02:55:09;;;;;;;9.68;7.70;;;;;;;25.11;17.24;95350.19;5018111;22;20069;-62
2021/10/26 02:57:37;;;;;;;9.45;7.85;;;;;;;25.09;17.34;95347.09;5014822;28;20049;-44
2021/10/26 03:00:10;;;;;;;10.70;8.20;;;;;;;25.10;17.17;95339.84;5030796;28;20045;-58
2021/10/26 03:02:39;;;;;;;11.32;8.45;;;;;;;24.92;17.30;95342.16;5010834;28;20057;-44
2021/10/26 03:05:08;;;;;;;11.15;7.85;;;;;;;24.94;17.22;95336.47;5012545;28;20046;-47
2021/10/26 03:07:45;;;;;;;13.68;8.05;;;;;;;24.64;17.43;95341.63;5030553;28;20061;-44
2021/10/26 03:10:14;;;;;;;8.82;7.93;;;;;;;24.59;17.85;95340.78;5010182;28;20045;-43
2021/10/26 03:12:41;;;;;;;8.77;7.70;;;;;;;24.72;17.38;95337.94;5011022;28;20076;-44
2021/10/26 03:15:11;;;;;;;11.25;8.00;;;;;;;25.00;17.23;95345.78;5008031;28;20053;-47
2021/10/26 03:17:38;;;;;;;10.35;7.95;;;;;;;24.84;17.31;95335.16;5014851;28;20046;-57
2021/10/26 03:20:12;;;;;;;12.98;8.98;;;;;;;24.57;17.66;95332.34;5030883;28;20053;-43
2021/10/26 03:22:40;;;;;;;12.45;8.45;;;;;;;24.67;17.43;95330.22;5026852;28;20053;-43
2021/10/26 03:25:08;;;;;;;10.07;8.32;;;;;;;24.90;17.38;95328.38;5013071;28;20058;-44
2021/10/26 03:27:35;;;;;;;10.98;8.73;;;;;;;24.92;17.25;95332.25;5014367;28;20061;-50
2021/10/26 03:30:08;;;;;;;11.65;8.88;;;;;;;24.82;17.36;95334.72;5012489;28;20060;-44
2021/10/26 03:32:37;;;;;;;14.05;9.63;;;;;;;24.57;17.54;95335.00;5013561;28;20046;-45
2021/10/26 03:35:36;;;;;;;13.70;9.35;;;;;;;24.86;17.34;95332.88;4999733;28;20077;-54
2021/10/26 03:38:05;;;;;;;14.18;9.70;;;;;;;24.90;17.08;95333.72;4993876;28;20049;-55
2021/10/26 03:40:33;;;;;;;11.45;9.57;;;;;;;24.93;17.11;95322.31;5013354;28;20057;-42
2021/10/26 03:43:08;;;;;;;12.43;9.80;;;;;;;24.93;16.94;95327.66;5030010;28;20050;-53
2021/10/26 03:45:36;;;;;;;11.32;9.57;;;;;;;24.92;17.02;95326.88;5010049;28;20049;-58
2021/10/26 03:48:04;;;;;;;12.88;9.75;;;;;;;24.77;17.10;95324.31;5029856;28;20037;-56
2021/10/26 03:50:31;;;;;;;11.50;10.02;;;;;;;24.86;17.09;95328.31;5013312;28;20042;-52
2021/10/26 03:52:58;;;;;;;12.55;9.40;;;;;;;24.79;17.32;95322.06;5011199;28;20349;-57
2021/10/26 03:55:26;;;;;;;10.32;9.00;;;;;;;24.76;17.21;95325.44;5041966;28;20072;-59
2021/10/26 03:57:57;;;;;;;14.35;9.02;;;;;;;24.66;17.42;95323.31;5027904;28;20053;-44
2021/10/26 04:00:24;;;;;;;11.73;9.02;;;;;;;24.78;17.23;95325.88;5000981;28;20342;-44
2021/10/26 04:03:08;;;;;;;11.68;8.73;;;;;;;24.84;17.13;95324.44;4994064;28;20058;-43
2021/10/26 04:08:23;;;;;;;10.50;8.70;;;;;;;25.05;17.19;95330.22;5013475;28;20056;-43
2021/10/26 04:11:06;;;;;;;9.30;8.30;;;;;;;25.15;16.95;95324.28;5013389;28;20049;-46
2021/10/26 04:13:34;;;;;;;10.25;8.05;;;;;;;25.12;17.17;95319.63;5009472;28;20482;-43
2021/10/26 04:16:02;;;;;;;9.77;8.32;;;;;;;24.96;17.33;95321.59;5012438;28;20057;-50
2021/10/26 04:18:30;;;;;;;10.05;9.05;;;;;;;24.82;17.26;95321.34;5013151;28;20057;-43
2021/10/26 04:20:57;;;;;;;9.25;8.02;;;;;;;24.79;17.19;95311.38;5010059;28;20046;-43
2021/10/26 04:23:25;;;;;;;10.32;7.75;;;;;;;25.22;16.80;95318.28;5013399;28;20058;-49
2021/10/26 04:25:52;;;;;;;7.95;7.00;;;;;;;25.10;16.85;95321.13;4998741;28;20046;-50
2021/10/26 04:28:20;;;;;;;8.65;7.57;;;;;;;25.14;16.82;95320.06;5011592;28;20053;-44
2021/10/26 04:30:49;;;;;;;8.23;7.22;;;;;;;25.47;16.73;95326.72;5017682;28;20403;-57
2021/10/26 04:33:21;;;;;;;9.60;6.80;;;;;;;25.54;17.31;95321.50;5014092;28;20052;-47
2021/10/26 04:35:49;;;;;;;7.63;6.82;;;;;;;26.17;16.89;95326.25;5006907;28;20054;-43
2021/10/26 04:38:17;;;;;;;9.05;7.63;;;;;;;26.47;16.73;95322.84;5017587;28;20048;-54
2021/10/26 04:40:49;;;;;;;9.98;8.18;;;;;;;27.82;15.53;95316.16;5013169;28;20041;-43
2021/10/26 04:43:21;;;;;;;11.68;8.52;;;;;;;28.78;14.62;95317.44;5012319;28;20456;-52
2021/10/26 04:45:49;;;;;;;10.40;8.55;;;;;;;29.55;13.94;95311.84;5020114;28;20057;-47
2021/10/26 04:48:19;;;;;;;12.23;8.15;;;;;;;30.08;13.68;95320.66;5008625;28;20054;-50
2021/10/26 04:50:47;;;;;;;8.70;7.80;;;;;;;30.46;13.49;95306.72;5007424;28;20061;-50
2021/10/26 04:53:14;;;;;;;12.20;7.22;;;;;;;32.44;12.65;95320.75;5018587;28;20080;-47
2021/10/26 04:55:49;;;;;;;10.98;8.15;;;;;;;30.82;13.13;95324.31;5004823;28;20058;-47
2021/10/26 04:58:17;;;;;;;12.20;8.48;;;;;;;29.64;13.36;95329.16;5014744;28;20045;-48
2021/10/26 05:00:47;;;;;;;9.75;7.50;;;;;;;28.94;14.72;95324.44;5011728;28;20057;-47
2021/10/26 05:03:14;;;;;;;11.38;8.02;;;;;;;28.77;14.89;95323.97;4995519;28;20633;-41
2021/10/26 05:05:42;;;;;;;14.63;9.07;;;;;;;27.84;15.60;95324.59;5009270;28;20805;-45
2021/10/26 05:08:10;;;;;;;15.60;9.70;;;;;;;28.17;16.13;95324.44;5012176;28;20380;-48
2021/10/26 05:10:38;;;;;;;16.35;10.35;;;;;;;26.27;16.09;95339.03;5008738;28;20050;-47
2021/10/26 05:13:09;;;;;;;15.02;11.18;;;;;;;25.52;16.40;95337.16;5000248;28;20049;-47
2021/10/26 05:15:57;;;;;;;18.98;11.05;;;;;;;25.19;16.29;95324.34;5003801;28;20053;-45
2021/10/26 05:18:58;;;;;;;18.77;11.63;;;;;;;24.89;16.47;95332.94;4985997;28;20050;-47
2021/10/26 05:21:44;;;;;;;14.10;11.43;;;;;;;24.84;16.67;95335.16;5011438;28;20045;-45
2021/10/26 05:24:32;;;;;;;18.55;11.82;;;;;;;24.60;16.90;95336.97;5000221;28;20065;-49
2021/10/26 05:27:09;;;;;;;20.42;12.25;;;;;;;25.07;16.65;95330.63;5012550;28;20049;-45
2021/10/26 05:29:39;;;;;;;17.30;11.93;;;;;;;24.74;16.72;95341.06;4990757;28;20043;-44
2021/10/26 05:32:08;;;;;;;19.40;12.02;;;;;;;25.40;17.63;95345.34;5004656;28;20050;-48
2021/10/26 05:34:39;;;;;;;18.50;12.50;;;;;;;25.13;17.53;95337.25;4997285;28;20469;-45
2021/10/26 05:37:07;;;;;;;23.05;13.65;;;;;;;24.69;18.16;95344.00;5014587;28;20388;-46
2021/10/26 05:39:34;;;;;;;19.50;12.35;;;;;;;24.60;17.80;95336.19;5002043;28;20050;-47
2021/10/26 05:42:02;;;;;;;19.30;12.82;;;;;;;24.54;18.20;95335.72;5010808;28;20418;-46
2021/10/26 05:44:29;;;;;;;18.83;13.70;;;;;;;24.71;17.84;95341.75;5001797;28;20049;-49
2021/10/26 05:46:56;;;;;;;17.83;13.77;;;;;;;24.92;17.64;95342.16;5011198;28;20381;-44
2021/10/26 05:49:23;;;;;;;20.35;12.70;;;;;;;27.67;16.17;95344.06;5000477;28;20050;-52
2021/10/26 05:51:50;;;;;;;18.38;14.25;;;;;;;26.40;16.96;95353.78;4998116;28;20042;-47
2021/10/26 05:54:17;;;;;;;23.98;15.13;;;;;;;26.09;17.21;95348.75;5014000;28;20453;-47
2021/10/26 05:56:45;;;;;;;19.20;13.50;;;;;;;25.94;17.22;95349.66;5004293;28;20461;-49
2021/10/26 05:59:16;;;;;;;17.15;13.40;;;;;;;25.73;17.39;95353.56;5014129;28;20108;-45
2021/10/26 06:01:43;;;;;;;17.20;13.38;;;;;;;25.79;17.08;95357.50;4992116;28;20062;-48
2021/10/26 06:04:10;;;;;;;15.38;11.98;;;;;;;25.77;16.94;95365.13;4996791;28;20377;-47
2021/10/26 06:06:39;;;;;;;14.30;10.63;;;;;;;26.10;16.57;95356.41;5012177;28;20053;-45
2021/10/26 06:09:06;;;;;;;12.90;10.40;;;;;;;26.00;16.78;95351.66;4992701;28;20053;-46
2021/10/26 06:11:34;;;;;;;13.98;9.68;;;;;;;26.29;16.69;95358.22;4996615;28;20072;-46
2021/10/26 06:14:08;;;;;;;16.27;9.98;;;;;;;26.52;16.46;95360.81;5003279;28;20045;-44
2021/10/26 06:16:37;;;;;;;18.25;11.20;;;;;;;26.69;16.13;95371.00;4991627;28;20054;-51
2021/10/26 06:19:08;;;;;;;10.38;9.40;;;;;;;27.02;16.26;95362.22;4998567;28;20053;-46
2021/10/26 06:21:35;;;;;;;12.00;9.30;;;;;;;27.27;15.65;95367.06;5003263;28;20054;-47
2021/10/26 06:24:03;;;;;;;12.35;9.05;;;;;;;27.40;16.02;95360.28;5001514;28;20054;-47
2021/10/26 06:26:31;;;;;;;10.32;8.85;;;;;;;27.58;15.91;95366.56;5006533;28;20054;-50
2021/10/26 06:29:06;;;;;;;13.48;8.70;;;;;;;27.91;15.54;95367.66;5000178;28;20050;-44
2021/10/26 06:31:37;;;;;;;11.63;9.25;;;;;;;27.94;15.50;95372.28;5001696;28;20046;-45
2021/10/26 06:34:04;;;;;;;10.90;8.82;;;;;;;27.81;15.47;95358.34;5012038;28;20437;-44
2021/10/26 06:36:32;;;;;;;10.82;8.75;;;;;;;28.02;15.14;95363.13;5010975;28;20060;-47
2021/10/26 06:38:59;;;;;;;11.10;9.15;;;;;;;28.34;14.96;95362.56;4993884;28;20054;-43
2021/10/26 06:41:29;;;;;;;13.48;10.85;;;;;;;28.23;15.26;95365.94;5011321;28;20057;-44
2021/10/26 06:44:02;;;;;;;17.67;12.85;;;;;;;28.28;15.18;95361.38;4994060;28;20057;-44
2021/10/26 06:46:42;;;;;;;14.07;12.15;;;;;;;28.07;15.58;95370.81;5011024;28;20384;-49
2021/10/26 06:49:29;;;;;;;14.70;11.70;;;;;;;28.43;14.65;95371.09;4999165;28;20050;-46
2021/10/26 06:52:15;;;;;;;32.05;29.13;;;;;;;28.34;14.73;95368.72;4997543;28;20058;-44
2021/10/26 06:55:02;;;;;;;64.47;41.78;;;;;;;28.20;15.23;95369.38;5006902;28;20062;-45
2021/10/26 06:57:49;;;;;;;53.00;40.13;;;;;;;28.65;14.82;95367.34;5004367;28;20078;-45
2021/10/26 07:00:35;;;;;;;51.88;39.40;;;;;;;28.70;14.83;95369.69;5011464;28;20042;-46
2021/10/26 07:03:22;;;;;;;49.38;39.05;;;;;;;29.25;14.40;95361.41;5000331;28;20057;-46
2021/10/26 07:05:49;;;;;;;46.95;38.17;;;;;;;29.45;14.22;95364.56;5002855;28;20482;-50
2021/10/26 07:08:35;;;;;;;44.05;37.85;;;;;;;29.40;14.22;95357.56;4998749;28;20046;-48
2021/10/26 07:11:35;;;;;;;41.80;36.83;;;;;;;29.53;14.13;95359.94;4983357;28;20046;-47
2021/10/26 07:14:07;;;;;;;40.92;36.63;;;;;;;29.85;13.95;95368.78;4997720;28;20046;-48
2021/10/26 07:16:35;;;;;;;37.25;33.78;;;;;;;29.73;13.92;95363.81;5013844;28;20050;-48
2021/10/26 07:19:03;;;;;;;37.25;33.85;;;;;;;30.15;14.05;95367.63;4991517;28;20528;-48
2021/10/26 07:21:50;;;;;;;96.10;65.13;;;;;;;31.86;13.07;95354.16;5002489;28;20478;-48
2021/10/26 07:24:41;;;;;;;210.48;72.63;;;;;;;31.00;13.23;95362.00;5004013;28;20380;-48
2021/10/26 07:27:11;;;;;;;219.77;70.75;;;;;;;31.08;12.86;95368.13;5006230;28;20046;-49
2021/10/26 07:29:38;;;;;;;122.78;65.10;;;;;;;30.98;13.07;95361.66;4994864;28;20050;-48
2021/10/26 07:32:06;;;;;;;36.70;33.22;;;;;;;30.66;13.32;95362.53;5010645;28;20057;-47
2021/10/26 07:34:35;;;;;;;35.67;32.85;;;;;;;32.20;12.55;95354.97;5007282;28;20054;-52
2021/10/26 07:37:02;;;;;;;13.82;11.88;;;;;;;32.18;12.21;95367.38;5001194;28;20042;-48
2021/10/26 07:39:35;;;;;;;13.95;12.10;;;;;;;31.99;12.90;95362.53;4994157;28;20046;-48
2021/10/26 07:42:05;;;;;;;14.80;12.07;;;;;;;32.26;12.73;95358.03;4991194;28;20081;-50
2021/10/26 07:44:52;;;;;;;13.25;11.00;;;;;;;31.79;12.84;95346.09;4996812;28;20042;-47
2021/10/26 07:47:26;;;;;;;12.77;10.85;;;;;;;31.04;13.29;95343.09;5008314;28;20357;-48
2021/10/26 07:49:56;;;;;;;14.23;10.57;;;;;;;30.57;13.59;95340.56;4996484;28;20050;-47
2021/10/26 07:52:25;;;;;;;12.55;10.43;;;;;;;30.50;14.00;95340.59;4993982;28;20046;-47
2021/10/26 07:55:13;;;;;;;15.10;11.05;;;;;;;29.94;14.21;95331.47;4976669;28;20365;-44
2021/10/26 07:57:41;;;;;;;17.60;10.52;;;;;;;30.05;14.13;95334.16;4993706;28;20046;-45
2021/10/26 08:00:10;;;;;;;15.05;9.80;;;;;;;30.07;13.97;95339.94;4996021;28;20062;-45
2021/10/26 08:02:43;;;;;;;10.13;9.10;;;;;;;29.73;14.49;95326.09;4991538;28;20047;-47
2021/10/26 08:05:31;;;;;;;10.23;7.90;;;;;;;30.04;14.25;95324.53;5004020;28;20372;-48
2021/10/26 08:07:59;;;;;;;10.13;8.18;;;;;;;30.29;14.48;95319.09;5010489;28;20412;-48
2021/10/26 08:10:27;;;;;;;8.25;7.43;;;;;;;30.20;14.20;95321.44;4991642;28;20629;-47
2021/10/26 08:12:54;;;;;;;7.85;6.82;;;;;;;30.03;14.08;95325.69;5008857;28;20049;-47
2021/10/26 08:15:22;;;;;;;8.68;7.28;;;;;;;30.41;14.20;95326.75;4995957;28;20065;-46
2021/10/26 08:17:50;;;;;;;8.38;7.45;;;;;;;30.04;14.16;95322.59;4989865;28;20479;-48
2021/10/26 08:20:17;;;;;;;7.75;7.05;;;;;;;30.56;13.84;95314.75;4994975;28;20042;-51
2021/10/26 08:22:45;;;;;;;9.63;7.03;;;;;;;30.32;14.18;95324.47;5009314;28;20061;-47
2021/10/26 08:25:23;;;;;;;8.75;7.22;;;;;;;30.39;14.26;95320.97;5001952;28;20056;-47
2021/10/26 08:27:56;;;;;;;9.82;8.50;;;;;;;30.32;13.87;95318.31;4993391;28;20784;-47
2021/10/26 08:30:38;;;;;;;8.25;7.28;;;;;;;30.64;13.56;95313.59;4998695;28;20038;-51
2021/10/26 08:35:52;;;;;;;9.55;8.00;;;;;;;30.40;13.83;95311.72;4995765;28;20046;-49
2021/10/26 08:38:20;;;;;;;7.93;7.13;;;;;;;30.61;13.81;95317.06;5009411;28;20084;-49
2021/10/26 08:41:06;;;;;;;8.98;7.22;;;;;;;30.40;14.00;95314.41;4988721;28;20054;-48
2021/10/26 08:43:34;;;;;;;10.35;7.05;;;;;;;30.73;13.95;95320.50;4992863;28;20046;-48
2021/10/26 08:46:08;;;;;;;8.45;7.25;;;;;;;30.36;13.50;95313.66;4995890;28;20057;-47
2021/10/26 08:48:40;;;;;;;10.07;7.43;;;;;;;30.64;13.62;95316.28;4995120;28;20042;-50
2021/10/26 08:51:43;;;;;;;9.00;7.00;;;;;;;30.71;13.44;95312.81;4957724;28;20118;-50
2021/10/26 08:54:13;;;;;;;9.73;6.85;;;;;;;30.56;13.54;95314.75;4998198;28;20050;-48
2021/10/26 08:56:59;;;;;;;10.43;9.30;;;;;;;30.45;13.45;95316.72;4997819;28;20061;-48
2021/10/26 09:00:05;;;;;;;10.20;7.78;;;;;;;30.57;13.41;95323.63;4981812;28;20050;-48
2021/10/26 09:02:43;;;;;;;7.90;7.10;;;;;;;30.29;13.62;95313.69;4989351;28;20057;-47
2021/10/26 09:05:17;;;;;;;9.57;7.38;;;;;;;30.56;13.65;95312.06;4996326;28;20061;-48
2021/10/26 09:08:06;;;;;;;8.40;7.30;;;;;;;30.82;13.62;95302.72;5008959;28;20524;-47
2021/10/26 09:10:36;;;;;;;9.57;6.38;;;;;;;30.96;13.70;95312.66;4988971;28;20460;-48
2021/10/26 09:16:56;;;;;;;7.45;6.70;;;;;;;30.88;13.46;95295.72;4997026;28;20046;-47
2021/10/26 09:19:44;;;;;;;8.43;6.72;;;;;;;31.02;13.36;95294.91;4993479;28;20365;-47
2021/10/26 09:22:31;;;;;;;28.95;25.92;;;;;;;31.04;13.49;95289.88;5008990;28;20050;-48
2021/10/26 09:25:01;;;;;;;12.43;11.13;;;;;;;30.60;13.63;95285.84;4992532;28;20058;-49
2021/10/26 09:27:30;;;;;;;;;;;;;;;30.64;13.87;95283.91;5011469;28;20057;-48
2021/10/26 09:30:00;;;;;;;10.30;9.30;;;;;;;31.11;13.60;95281.72;5000620;28;19944;-49
2021/10/26 09:32:37;;;;;;;8.20;6.88;;;;;;;31.07;13.41;95283.66;5000696;28;20045;-49
2021/10/26 09:35:13;;;;;;;8.88;6.85;;;;;;;31.31;13.31;95275.81;5001090;28;20381;-49
2021/10/26 09:37:49;;;;;;;7.65;6.93;;;;;;;30.79;13.40;95264.94;4991407;28;20054;-50
2021/10/26 09:40:17;;;;;;;7.95;7.15;;;;;;;30.89;13.59;95269.50;4993984;28;20039;-49
2021/10/26 09:42:53;;;;;;;7.10;6.40;;;;;;;30.97;13.38;95271.03;4993562;28;20054;-48
2021/10/26 09:45:30;;;;;;;9.07;6.50;;;;;;;30.79;13.22;95259.56;4992880;28;20053;-49
2021/10/26 09:47:59;;;;;;;8.30;5.78;;;;;;;31.07;13.46;95248.56;4994178;28;20053;-48
2021/10/26 09:50:35;;;;;;;7.22;6.50;;;;;;;30.92;13.45;95249.81;4992906;28;20058;-49
2021/10/26 09:53:06;;;;;;;8.50;6.68;;;;;;;30.69;13.75;95248.41;4991465;28;20053;-48
2021/10/26 09:55:40;;;;;;;7.47;6.78;;;;;;;30.88;13.55;95236.34;5004873;28;20057;-48
2021/10/26 09:58:15;;;;;;;8.40;6.43;;;;;;;30.73;13.31;95228.75;4997464;28;20057;-49
2021/10/26 10:00:46;;;;;;;7.90;6.28;;;;;;;31.21;13.76;95226.09;5002125;28;20057;-50
2021/10/26 10:03:16;;;;;;;49.85;42.25;;;;;;;31.89;13.61;95227.06;4998231;28;20373;-47
2021/10/26 10:05:58;;;;;;;12.50;10.03;;;;;;;31.95;13.28;95215.78;5005066;28;20048;-51
2021/10/26 10:08:33;;;;;;;8.80;7.25;;;;;;;31.78;13.17;95215.59;4993654;28;20441;-51
2021/10/26 10:11:19;;;;;;;7.03;6.32;;;;;;;31.93;12.49;95205.38;4996915;28;20049;-49
2021/10/26 10:13:56;;;;;;;7.95;6.07;;;;;;;32.06;12.76;95202.94;4999259;28;20049;-53
2021/10/26 10:16:24;;;;;;;6.95;5.95;;;;;;;32.25;12.86;95205.00;5001227;28;20054;-49
2021/10/26 10:18:53;;;;;;;6.47;5.70;;;;;;;32.33;12.61;95198.38;4997268;28;20445;-48
2021/10/26 10:21:24;;;;;;;7.57;5.60;;;;;;;32.29;12.53;95188.78;4997326;28;20054;-49
2021/10/26 10:23:51;;;;;;;8.05;5.47;;;;;;;32.71;11.90;95192.84;4998358;28;20054;-49
2021/10/26 10:26:24;;;;;;;5.72;5.22;;;;;;;32.65;12.14;95184.41;4996910;28;20046;-49
2021/10/26 10:28:53;;;;;;;6.22;5.65;;;;;;;32.37;12.24;95185.56;4999063;28;20361;-51
2021/10/26 10:31:25;;;;;;;6.05;5.30;;;;;;;32.45;11.86;95184.28;5001152;28;20042;-47
2021/10/26 10:33:54;;;;;;;6.22;5.32;;;;;;;32.64;11.74;95182.88;5001959;28;20056;-49
2021/10/26 10:36:22;;;;;;;5.63;5.03;;;;;;;32.84;12.16;95174.13;5002479;28;20053;-51
2021/10/26 10:38:53;;;;;;;6.78;6.18;;;;;;;32.61;12.18;95174.81;4992164;28;20369;-48
2021/10/26 10:41:28;;;;;;;6.65;5.45;;;;;;;32.75;11.82;95166.47;4996716;28;20573;-51
2021/10/26 10:44:00;;;;;;;6.00;5.40;;;;;;;32.40;11.74;95165.81;5002082;28;20049;-49
2021/10/26 10:46:51;;;;;;;5.25;4.75;;;;;;;32.50;11.66;95167.59;4999624;28;20058;-50
2021/10/26 10:49:24;;;;;;;7.00;4.80;;;;;;;32.50;11.97;95156.78;4996806;28;20075;-48
2021/10/26 10:51:55;;;;;;;8.98;4.80;;;;;;;32.62;12.11;95157.41;4992593;28;20050;-51
2021/10/26 10:54:39;;;;;;;7.03;4.63;;;;;;;32.73;11.65;95160.69;5001519;28;20453;-51
2021/10/26 10:57:18;;;;;;;6.65;4.88;;;;;;;32.49;12.10;95157.19;5002649;28;20468;-50
2021/10/26 10:59:55;;;;;;;4.90;4.50;;;;;;;32.43;12.23;95148.75;5002395;28;20065;-49
2021/10/26 11:02:35;;;;;;;6.22;4.90;;;;;;;32.27;12.14;95140.50;4996836;28;20049;-47
2021/10/26 11:05:07;;;;;;;6.20;5.10;;;;;;;32.70;11.49;95139.88;5001983;28;20054;-49
2021/10/26 11:07:43;;;;;;;8.13;6.18;;;;;;;32.55;11.46;95133.16;4998452;28;20073;-47
2021/10/26 11:10:13;;;;;;;5.00;4.60;;;;;;;32.27;12.06;95126.97;4995958;28;20361;-51
2021/10/26 11:12:42;;;;;;;5.95;4.70;;;;;;;32.09;12.24;95118.31;4999545;28;20046;-47
2021/10/26 11:15:12;;;;;;;4.60;4.18;;;;;;;31.95;12.23;95121.16;5011375;28;20041;-48
2021/10/26 11:17:46;;;;;;;5.28;4.40;;;;;;;32.36;12.10;95113.69;5003042;28;20046;-49
2021/10/26 11:20:37;;;;;;;5.03;4.50;;;;;;;32.41;12.18;95105.13;4995676;28;20114;-47
2021/10/26 11:23:10;;;;;;;4.72;4.18;;;;;;;32.27;12.45;95109.97;5008722;28;20065;-47
2021/10/26 11:25:42;;;;;;;5.72;4.93;;;;;;;32.48;12.30;95104.25;5006822;28;20046;-49
2021/10/26 11:28:17;;;;;;;4.82;4.35;;;;;;;32.57;11.89;95095.63;4995830;28;20053;-50
2021/10/26 11:30:44;;;;;;;4.38;3.97;;;;;;;32.42;12.33;95090.41;4992235;28;20042;-49
2021/10/26 11:33:16;;;;;;;;;;;;;;;32.26;11.97;95092.19;5008556;28;20051;-50
2021/10/26 11:35:52;;;;;;;5.10;4.20;;;;;;;31.93;12.22;95094.53;4998199;28;20400;-49
2021/10/26 11:38:32;;;;;;;4.85;3.92;;;;;;;32.37;11.68;95087.41;4995189;28;20050;-49
2021/10/26 11:41:02;;;;;;;5.88;4.13;;;;;;;32.45;12.02;95078.00;4995310;28;20050;-50
2021/10/26 11:43:51;;;;;;;5.00;4.38;;;;;;;32.00;12.00;95077.47;5007557;28;20046;-50
2021/10/26 11:46:37;;;;;;;7.82;4.50;;;;;;;32.00;12.34;95074.75;4991712;28;20050;-52
2021/10/26 11:49:23;;;;;;;7.43;6.50;;;;;;;31.84;11.98;95069.97;5004971;28;20049;-49
2021/10/26 11:51:56;;;;;;;5.53;4.80;;;;;;;31.84;11.99;95070.72;4997315;28;20057;-47
2021/10/26 11:54:25;;;;;;;6.50;4.03;;;;;;;31.67;12.27;95063.56;5005398;28;20058;-48
2021/10/26 11:57:02;;;;;;;5.20;4.57;;;;;;;32.06;11.84;95065.03;4995039;28;20073;-47
2021/10/26 11:59:40;;;;;;;4.38;3.97;;;;;;;32.01;12.29;95060.06;5010253;28;20046;-52